Time;durP1;ratioP1;P1;durP2;ratioP2;P2;SDS_P1;SDS_P2;PMS_P1;PMS_P2;Temp;Humidity;BMP_temperature;BMP_pressure;BME280_temperature;BME280_humidity;BME280_pressure;Samples;Min_cycle;Max_cycle;Signal;HPM_P1;HPM_P2
2021/07/29 00:01:11;;;;;;;4.50;2.90;;;;;;;16.51;84.80;96261.91;5110966;28;20047;-76
2021/07/29 00:03:38;;;;;;;7.03;2.88;;;;;;;16.49;84.71;96272.47;5111136;28;20071;-76
2021/07/29 00:06:05;;;;;;;9.10;3.03;;;;;;;16.48;84.50;96261.81;5109637;28;20048;-75
2021/07/29 00:08:31;;;;;;;9.13;3.50;;;;;;;16.48;84.72;96261.81;5111399;28;20047;-76
2021/07/29 00:10:58;;;;;;;8.93;3.33;;;;;;;16.46;84.92;96264.16;5111870;28;20047;-76
2021/07/29 00:13:24;;;;;;;6.40;3.17;;;;;;;16.46;84.89;96264.16;5114640;28;20039;-76
2021/07/29 00:15:51;;;;;;;10.48;3.42;;;;;;;16.50;84.85;96265.03;5115145;28;20039;-76
2021/07/29 00:21:02;;;;;;;8.25;2.90;;;;;;;16.48;84.63;96248.88;5114620;28;20058;-76
2021/07/29 00:23:29;;;;;;;4.82;2.97;;;;;;;16.48;84.84;96246.13;5115006;28;20048;-76
2021/07/29 00:25:55;;;;;;;10.43;2.88;;;;;;;16.44;84.79;96250.75;5115304;28;20055;-75
2021/07/29 00:28:22;;;;;;;8.57;2.83;;;;;;;16.45;84.70;96246.88;5114253;28;20046;-76
2021/07/29 00:30:48;;;;;;;7.18;2.90;;;;;;;16.48;84.02;96251.63;5115272;28;20501;-77
2021/07/29 00:33:14;;;;;;;10.93;3.10;;;;;;;16.47;84.41;96254.75;5114614;28;20043;-76
2021/07/29 00:35:42;;;;;;;8.57;3.17;;;;;;;16.45;84.64;96257.84;5115295;28;20047;-77
2021/07/29 00:38:09;;;;;;;9.30;3.10;;;;;;;16.44;84.85;96251.56;5114576;28;20046;-76
2021/07/29 00:40:35;;;;;;;7.03;2.72;;;;;;;16.44;84.99;96257.06;5115234;28;20043;-76
2021/07/29 00:43:02;;;;;;;5.35;2.83;;;;;;;16.39;84.66;96257.34;5114503;28;20055;-75
2021/07/29 00:45:29;;;;;;;7.85;2.90;;;;;;;16.33;84.28;96250.50;5114795;28;20039;-80
2021/07/29 00:47:55;;;;;;;8.43;3.28;;;;;;;16.31;84.37;96250.06;5112485;28;20047;-76
2021/07/29 00:50:22;;;;;;;9.23;3.20;;;;;;;16.29;84.37;96251.59;5114080;28;20051;-75
2021/07/29 00:52:50;;;;;;;10.65;2.70;;;;;;;16.25;84.43;96248.75;5114805;28;20047;-76
2021/07/29 00:55:19;;;;;;;6.28;2.85;;;;;;;16.23;84.39;96245.56;5114264;28;20051;-76
2021/07/29 00:57:46;;;;;;;8.65;3.10;;;;;;;16.18;84.54;96240.34;5114357;28;20039;-76
2021/07/29 01:00:13;;;;;;;11.85;3.30;;;;;;;16.18;84.68;96243.09;5114382;28;20047;-75
2021/07/29 01:02:40;;;;;;;6.60;3.10;;;;;;;16.20;84.83;96238.03;5114606;28;20047;-75
2021/07/29 01:05:09;;;;;;;9.65;3.22;;;;;;;16.22;85.15;96243.97;5114085;28;20042;-76
2021/07/29 01:07:35;;;;;;;4.68;3.10;;;;;;;16.28;85.04;96247.25;5114539;28;20039;-75
2021/07/29 01:10:04;;;;;;;8.38;2.90;;;;;;;16.32;85.16;96251.66;5114269;28;20085;-75
2021/07/29 01:12:31;;;;;;;8.88;3.00;;;;;;;16.30;84.17;96251.25;5114441;28;20053;-76
2021/07/29 01:14:57;;;;;;;7.32;3.03;;;;;;;16.27;84.67;96251.94;5114442;28;20047;-76
2021/07/29 01:17:24;;;;;;;7.22;3.17;;;;;;;16.25;84.65;96251.50;5113842;28;20039;-75
2021/07/29 01:19:51;;;;;;;8.60;3.05;;;;;;;16.23;84.80;96248.31;5114193;28;20383;-76
2021/07/29 01:22:18;;;;;;;9.07;3.22;;;;;;;16.22;84.85;96241.22;5113810;28;20035;-75
2021/07/29 01:24:45;;;;;;;7.75;3.50;;;;;;;16.19;84.64;96239.22;5113909;28;20047;-76
2021/07/29 01:27:11;;;;;;;8.70;2.80;;;;;;;16.15;84.63;96235.56;5113105;28;20039;-76
2021/07/29 01:29:38;;;;;;;11.60;3.17;;;;;;;16.08;84.79;96227.19;5113731;28;20039;-76
2021/07/29 01:32:05;;;;;;;6.80;3.13;;;;;;;16.08;85.16;96232.66;5113424;28;20040;-75
2021/07/29 01:34:33;;;;;;;10.15;2.92;;;;;;;16.10;85.39;96238.59;5114184;28;20131;-76
2021/07/29 01:37:00;;;;;;;7.80;3.22;;;;;;;16.10;84.85;96231.16;5113747;28;20490;-75
2021/07/29 01:39:28;;;;;;;5.70;3.20;;;;;;;16.07;84.86;96242.03;5113015;28;20785;-76
2021/07/29 01:41:54;;;;;;;7.53;2.83;;;;;;;16.09;85.19;96242.50;5113814;28;20493;-76
2021/07/29 01:44:20;;;;;;;7.43;3.20;;;;;;;16.09;85.25;96251.53;5113342;28;20044;-75
2021/07/29 01:46:47;;;;;;;9.38;2.88;;;;;;;16.09;85.22;96245.25;5113556;28;20577;-74
2021/07/29 01:49:19;;;;;;;7.80;3.35;;;;;;;16.07;85.14;96247.53;5113178;28;20047;-74
2021/07/29 01:51:45;;;;;;;5.88;3.30;;;;;;;16.07;85.15;96247.53;5113934;28;20502;-75
2021/07/29 01:54:12;;;;;;;7.95;3.00;;;;;;;16.09;84.94;96248.00;5112971;28;20440;-74
2021/07/29 01:56:41;;;;;;;6.68;3.20;;;;;;;16.08;84.92;96246.41;5113703;28;20406;-74
2021/07/29 01:59:07;;;;;;;7.45;2.95;;;;;;;16.06;84.88;96248.69;5112469;28;20428;-75
2021/07/29 02:01:34;;;;;;;5.95;2.90;;;;;;;16.00;84.85;96241.88;5113693;28;20046;-74
2021/07/29 02:04:01;;;;;;;12.10;3.05;;;;;;;16.00;85.07;96247.38;5113276;28;20044;-75
2021/07/29 02:06:27;;;;;;;6.45;2.80;;;;;;;16.00;84.92;96242.66;5113146;28;20051;-74
2021/07/29 02:08:54;;;;;;;6.25;2.97;;;;;;;15.99;85.07;96245.78;5113073;28;20624;-75
2021/07/29 02:11:20;;;;;;;7.28;3.05;;;;;;;16.01;84.92;96248.97;5112651;28;20039;-75
2021/07/29 02:13:48;;;;;;;10.75;3.30;;;;;;;15.99;84.84;96246.56;5113249;28;20498;-75
2021/07/29 02:16:14;;;;;;;6.45;2.90;;;;;;;16.00;84.96;96253.66;5112534;28;20507;-75
2021/07/29 02:18:41;;;;;;;9.05;2.90;;;;;;;16.00;84.74;96252.84;5113075;28;20067;-75
2021/07/29 02:21:09;;;;;;;7.65;3.10;;;;;;;15.98;84.68;96249.69;5112654;28;20411;-74
2021/07/29 02:23:36;;;;;;;5.32;3.00;;;;;;;15.94;84.79;96246.84;5113004;28;20100;-75
2021/07/29 02:26:02;;;;;;;6.78;3.10;;;;;;;15.95;84.93;96240.19;5112439;28;20047;-75
2021/07/29 02:28:29;;;;;;;4.18;3.03;;;;;;;15.98;85.12;96244.19;5112790;28;20040;-75
2021/07/29 02:30:57;;;;;;;6.05;2.97;;;;;;;15.99;84.93;96259.50;5113092;28;20042;-75
2021/07/29 02:33:23;;;;;;;6.80;2.85;;;;;;;16.01;84.45;96251.69;5112203;28;20077;-75
2021/07/29 02:35:50;;;;;;;7.22;3.38;;;;;;;15.99;84.64;96256.75;5112407;28;20047;-75
2021/07/29 02:38:17;;;;;;;9.07;3.45;;;;;;;15.97;84.81;96243.38;5112104;28;20073;-74
2021/07/29 02:40:44;;;;;;;5.75;3.30;;;;;;;15.96;84.60;96246.47;5112743;28;20050;-75
2021/07/29 02:43:10;;;;;;;4.18;2.60;;;;;;;15.95;84.82;96258.63;5112306;28;20055;-75
2021/07/29 02:45:37;;;;;;;7.72;3.40;;;;;;;15.95;85.17;96253.13;5112325;28;20044;-75
2021/07/29 02:48:05;;;;;;;6.22;3.33;;;;;;;15.97;85.07;96265.34;5112150;28;20063;-75
2021/07/29 02:50:31;;;;;;;4.57;2.90;;;;;;;15.98;84.81;96263.41;5112513;28;20069;-75
2021/07/29 02:52:58;;;;;;;5.68;2.90;;;;;;;15.99;84.72;96265.00;5112467;28;20046;-75
2021/07/29 02:55:24;;;;;;;5.72;2.47;;;;;;;15.99;85.01;96259.50;5112008;28;20043;-74
2021/07/29 02:57:51;;;;;;;9.73;3.30;;;;;;;15.99;84.67;96265.00;5111938;28;20055;-75
2021/07/29 03:00:17;;;;;;;6.22;3.20;;;;;;;15.98;84.75;96266.16;5111792;28;20040;-75
2021/07/29 03:02:44;;;;;;;13.35;3.35;;;;;;;15.99;84.80;96256.75;5112324;28;20398;-75
2021/07/29 03:05:12;;;;;;;5.82;2.85;;;;;;;15.99;85.16;96260.31;5111777;28;20052;-74
2021/07/29 03:07:38;;;;;;;8.30;2.92;;;;;;;16.01;84.66;96265.44;5112381;28;20050;-74
2021/07/29 03:10:05;;;;;;;6.07;3.30;;;;;;;16.01;84.87;96254.44;5111634;28;20048;-74
2021/07/29 03:12:32;;;;;;;5.80;2.85;;;;;;;16.03;84.74;96258.44;5112225;28;20040;-75
2021/07/29 03:14:58;;;;;;;5.85;2.80;;;;;;;16.06;84.85;96256.94;5112349;28;20043;-75
2021/07/29 03:17:25;;;;;;;6.50;3.20;;;;;;;16.09;84.88;96261.72;5111630;28;20044;-74
2021/07/29 03:19:51;;;;;;;9.60;3.25;;;;;;;16.12;85.02;96261.78;5112090;28;20043;-75
2021/07/29 03:22:19;;;;;;;8.18;3.22;;;;;;;16.17;85.24;96266.22;5111634;28;20043;-75
2021/07/29 03:24:45;;;;;;;5.97;3.17;;;;;;;16.20;85.31;96261.97;5112086;28;20046;-75
2021/07/29 03:27:12;;;;;;;4.88;2.88;;;;;;;16.27;85.19;96260.19;5111343;28;20497;-74
2021/07/29 03:29:38;;;;;;;4.00;2.85;;;;;;;16.30;85.34;96262.22;5111322;28;20050;-74
2021/07/29 03:32:06;;;;;;;6.15;3.08;;;;;;;16.34;84.98;96268.59;5111527;28;20047;-74
2021/07/29 03:34:32;;;;;;;5.78;2.90;;;;;;;16.34;84.58;96268.59;5111771;28;20051;-74
2021/07/29 03:36:59;;;;;;;6.78;3.42;;;;;;;16.33;84.46;96261.50;5111689;28;20028;-75
2021/07/29 03:39:26;;;;;;;6.90;3.28;;;;;;;16.34;84.40;96265.84;5111131;28;20050;-75
2021/07/29 03:41:54;;;;;;;7.07;3.70;;;;;;;16.39;84.59;96260.09;5111917;28;20043;-75
2021/07/29 03:44:21;;;;;;;10.27;3.78;;;;;;;16.43;84.63;96269.19;5111175;28;20402;-75
2021/07/29 03:46:47;;;;;;;4.13;2.88;;;;;;;16.47;84.67;96265.75;5110677;28;20047;-75
2021/07/29 03:49:14;;;;;;;7.80;3.28;;;;;;;16.48;84.37;96261.81;5111061;28;20040;-75
2021/07/29 03:51:40;;;;;;;9.15;3.00;;;;;;;16.47;84.32;96266.53;5111705;28;20051;-74
2021/07/29 03:54:07;;;;;;;6.47;2.97;;;;;;;16.49;84.28;96266.16;5110985;28;20043;-74
2021/07/29 03:56:35;;;;;;;9.35;2.95;;;;;;;16.50;84.19;96270.53;5111665;28;20047;-75
2021/07/29 03:59:01;;;;;;;5.47;2.97;;;;;;;16.49;83.97;96263.41;5110988;28;20036;-75
2021/07/29 04:01:28;;;;;;;7.05;2.95;;;;;;;16.53;83.70;96269.78;5111220;28;20040;-75
2021/07/29 04:03:55;;;;;;;5.85;2.72;;;;;;;16.56;83.45;96258.09;5111347;28;20043;-75
2021/07/29 04:06:21;;;;;;;7.68;2.95;;;;;;;16.59;83.74;96268.34;5110781;28;20054;-75
2021/07/29 04:08:48;;;;;;;7.35;3.15;;;;;;;16.57;83.66;96270.69;5111330;28;20043;-75
2021/07/29 04:11:14;;;;;;;8.73;3.75;;;;;;;16.54;83.89;96263.94;5110894;28;20043;-75
2021/07/29 04:13:42;;;;;;;4.47;2.92;;;;;;;16.55;83.83;96265.56;5111435;28;20042;-77
2021/07/29 04:16:09;;;;;;;4.32;2.83;;;;;;;16.52;83.31;96273.72;5110745;28;20486;-75
2021/07/29 04:18:36;;;;;;;9.10;3.40;;;;;;;16.48;83.12;96270.88;5111019;28;20065;-75
2021/07/29 04:21:03;;;;;;;6.03;3.13;;;;;;;16.44;83.19;96273.56;5110931;28;20051;-74
2021/07/29 04:23:29;;;;;;;4.85;2.80;;;;;;;16.42;83.11;96278.59;5111112;28;20047;-75
2021/07/29 04:25:56;;;;;;;4.93;2.75;;;;;;;16.39;83.28;96282.06;5111351;28;20490;-75
2021/07/29 04:28:22;;;;;;;8.38;3.00;;;;;;;16.39;83.28;96276.56;5110133;28;20518;-75
2021/07/29 04:30:50;;;;;;;3.63;2.83;;;;;;;16.41;83.39;96279.75;5111247;28;20044;-74
2021/07/29 04:33:17;;;;;;;7.30;3.95;;;;;;;16.39;83.42;96284.81;5110586;28;20044;-75
2021/07/29 04:35:43;;;;;;;10.75;3.03;;;;;;;16.43;83.48;96282.94;5111130;28;20043;-74
2021/07/29 04:38:10;;;;;;;8.10;3.00;;;;;;;16.50;83.19;96281.53;5110690;28;20065;-75
2021/07/29 04:40:36;;;;;;;6.25;3.35;;;;;;;16.54;83.06;96271.38;5110486;28;20490;-75
2021/07/29 04:43:02;;;;;;;6.03;2.88;;;;;;;16.56;83.44;96269.88;5109203;28;20514;-74
2021/07/29 04:45:29;;;;;;;6.50;3.10;;;;;;;16.57;83.49;96276.97;5110997;28;20498;-75
2021/07/29 04:47:57;;;;;;;6.30;2.95;;;;;;;16.57;82.75;96281.69;5110910;28;20047;-75
2021/07/29 04:50:23;;;;;;;5.03;3.08;;;;;;;16.57;83.02;96281.69;5110411;28;20041;-75
2021/07/29 04:52:51;;;;;;;6.43;2.75;;;;;;;16.57;82.63;96281.69;5110844;28;20051;-75
2021/07/29 04:55:18;;;;;;;5.53;2.63;;;;;;;16.59;83.11;96284.84;5110207;28;20067;-75
2021/07/29 04:57:44;;;;;;;6.95;3.00;;;;;;;16.61;82.85;96286.09;5112321;28;20032;-75
2021/07/29 05:00:12;;;;;;;9.18;4.82;;;;;;;16.60;83.22;96289.19;5093581;28;20045;-74
2021/07/29 05:02:38;;;;;;;7.10;4.85;;;;;;;16.62;82.79;96286.91;5094486;28;20044;-74
2021/07/29 05:05:07;;;;;;;4.95;2.90;;;;;;;16.70;82.14;96299.63;5093910;28;20494;-75
2021/07/29 05:07:34;;;;;;;8.32;2.92;;;;;;;16.76;81.88;96295.50;5114511;28;20043;-75
2021/07/29 05:10:00;;;;;;;4.38;2.30;;;;;;;16.77;80.68;96291.59;5114638;28;20051;-75
2021/07/29 05:12:26;;;;;;;4.13;2.58;;;;;;;16.77;80.33;96275.09;5114399;28;20051;-75
2021/07/29 05:14:56;;;;;;;4.22;2.40;;;;;;;16.74;80.34;96277.75;5114500;28;20047;-73
2021/07/29 05:17:23;;;;;;;5.25;2.20;;;;;;;16.75;80.85;96271.88;5113821;28;20050;-73
2021/07/29 05:19:50;;;;;;;3.97;2.50;;;;;;;16.75;81.13;96277.38;5114371;28;20486;-72
2021/07/29 05:22:17;;;;;;;4.15;2.50;;;;;;;16.73;80.98;96282.47;5113457;28;20056;-74
2021/07/29 05:24:44;;;;;;;9.48;3.15;;;;;;;16.80;80.72;96273.56;5114334;28;20050;-73
2021/07/29 05:27:10;;;;;;;7.13;2.70;;;;;;;16.80;80.76;96282.59;5113791;28;20047;-74
2021/07/29 05:29:37;;;;;;;5.63;2.05;;;;;;;16.71;80.10;96276.53;5113848;28;20505;-73
2021/07/29 05:32:04;;;;;;;7.55;2.65;;;;;;;16.68;80.63;96277.22;5113770;28;20036;-73
2021/07/29 05:34:32;;;;;;;3.05;2.33;;;;;;;16.60;80.65;96273.53;5114238;28;20413;-74
2021/07/29 05:36:59;;;;;;;5.78;2.60;;;;;;;16.55;81.21;96272.97;5114060;28;20464;-75
2021/07/29 05:39:26;;;;;;;3.40;2.30;;;;;;;16.49;81.81;96271.66;5112543;28;20035;-74
2021/07/29 05:41:53;;;;;;;6.85;3.10;;;;;;;16.50;81.44;96278.78;5113853;28;20043;-73
2021/07/29 05:44:19;;;;;;;4.47;2.50;;;;;;;16.54;81.69;96285.13;5113454;28;20048;-73
2021/07/29 05:46:46;;;;;;;6.40;2.58;;;;;;;16.61;81.58;96277.06;5113795;28;20402;-74
2021/07/29 05:49:12;;;;;;;9.40;2.70;;;;;;;16.69;81.80;96281.53;5113132;28;20635;-73
2021/07/29 05:51:39;;;;;;;11.57;2.72;;;;;;;16.80;81.55;96285.34;5113864;28;20052;-73
2021/07/29 05:54:05;;;;;;;10.73;2.45;;;;;;;16.95;81.54;96284.50;5113091;28;20406;-73
2021/07/29 05:56:33;;;;;;;4.15;2.38;;;;;;;17.11;81.62;96289.16;5095799;28;20077;-73
2021/07/29 05:58:59;;;;;;;4.43;2.30;;;;;;;17.21;81.17;96283.06;5112874;28;20071;-73
2021/07/29 06:01:26;;;;;;;3.25;2.10;;;;;;;17.31;81.12;96271.47;5112893;28;20490;-73
2021/07/29 06:03:52;;;;;;;4.03;2.38;;;;;;;17.41;81.08;96281.09;5113501;28;20032;-74
2021/07/29 06:06:19;;;;;;;5.05;2.22;;;;;;;17.43;79.34;96290.56;5112604;28;20047;-74
2021/07/29 06:08:47;;;;;;;5.05;2.10;;;;;;;17.47;79.30;96291.44;5112600;28;20047;-74
2021/07/29 06:11:14;;;;;;;4.00;2.03;;;;;;;17.55;79.08;96297.13;5112968;28;20047;-74
2021/07/29 06:13:41;;;;;;;4.03;2.53;;;;;;;17.62;78.90;96297.22;5112823;28;20047;-73
2021/07/29 06:16:09;;;;;;;5.15;2.22;;;;;;;17.68;79.10;96284.75;5112300;28;20040;-74
2021/07/29 06:18:42;;;;;;;3.45;2.30;;;;;;;17.74;78.57;96283.31;5113098;28;20249;-73
2021/07/29 06:21:08;;;;;;;7.07;2.50;;;;;;;17.81;78.74;96288.97;5112741;28;20387;-74
2021/07/29 06:23:35;;;;;;;8.57;2.75;;;;;;;17.88;78.67;96283.56;5113115;28;20406;-75
2021/07/29 06:26:01;;;;;;;3.65;2.33;;;;;;;17.95;78.80;96283.69;5112751;28;20486;-74
2021/07/29 06:28:32;;;;;;;5.93;2.72;;;;;;;18.01;77.19;96286.97;5108140;28;20482;-74
2021/07/29 06:31:00;;;;;;;5.20;2.70;;;;;;;18.09;77.85;96287.88;5111602;28;20059;-73
2021/07/29 06:33:26;;;;;;;4.95;2.65;;;;;;;18.15;78.14;96286.38;5110091;28;20051;-74
2021/07/29 06:35:52;;;;;;;4.10;2.90;;;;;;;18.24;77.34;96292.44;5111081;28;20043;-73
2021/07/29 06:38:19;;;;;;;3.60;2.45;;;;;;;18.28;76.28;96293.31;5111028;28;20055;-73
2021/07/29 06:40:45;;;;;;;3.53;2.33;;;;;;;18.34;76.92;96283.56;5111509;28;20060;-74
2021/07/29 06:43:12;;;;;;;4.50;2.67;;;;;;;18.40;76.37;96284.03;5111033;28;20039;-72
2021/07/29 06:45:38;;;;;;;5.50;2.45;;;;;;;18.47;76.70;96284.94;5111111;28;20035;-74
2021/07/29 06:48:07;;;;;;;4.07;2.55;;;;;;;18.59;77.56;96288.66;5111668;28;20051;-74
2021/07/29 06:50:33;;;;;;;3.72;2.50;;;;;;;18.69;77.72;96288.84;5112425;28;20550;-74
2021/07/29 06:52:59;;;;;;;6.97;2.72;;;;;;;18.73;76.45;96294.41;5112199;28;20044;-76
2021/07/29 06:55:26;;;;;;;4.03;2.75;;;;;;;18.80;76.86;96288.22;5111972;28;20050;-74
2021/07/29 06:57:52;;;;;;;5.38;2.90;;;;;;;18.83;75.29;96291.00;5111784;28;20047;-75
2021/07/29 07:00:20;;;;;;;3.63;2.60;;;;;;;18.85;75.86;96291.44;5111686;28;20044;-76
2021/07/29 07:02:46;;;;;;;4.13;2.38;;;;;;;18.92;75.25;96282.47;5112438;28;20108;-74
2021/07/29 07:05:14;;;;;;;7.55;3.10;;;;;;;18.91;75.27;96287.19;5111906;28;20054;-74
2021/07/29 07:07:41;;;;;;;4.07;2.55;;;;;;;18.89;74.95;96288.72;5112239;28;20482;-74
2021/07/29 07:10:08;;;;;;;4.65;2.50;;;;;;;18.93;75.31;96276.56;5111693;28;20043;-75
2021/07/29 07:12:35;;;;;;;3.72;2.75;;;;;;;18.99;75.91;96283.34;5112348;28;20066;-74
2021/07/29 07:15:01;;;;;;;3.35;2.63;;;;;;;19.08;76.59;96283.06;5111713;28;20040;-75
2021/07/29 07:17:28;;;;;;;4.03;2.67;;;;;;;19.21;76.17;96280.84;5112079;28;20043;-74
2021/07/29 07:19:58;;;;;;;4.38;2.88;;;;;;;19.30;75.30;96292.41;5112019;28;20046;-75
2021/07/29 07:22:25;;;;;;;3.88;2.78;;;;;;;19.44;76.09;96292.56;5111544;28;20401;-75
2021/07/29 07:24:52;;;;;;;7.07;2.97;;;;;;;19.53;74.10;96290.31;5112139;28;20039;-75
2021/07/29 07:27:19;;;;;;;9.27;3.28;;;;;;;19.66;72.93;96295.59;5111485;28;20059;-75
2021/07/29 07:29:45;;;;;;;6.28;3.00;;;;;;;19.83;73.09;96294.97;5111579;28;20039;-75
2021/07/29 07:32:12;;;;;;;5.75;3.05;;;;;;;20.02;73.33;96297.53;5111047;28;20047;-75
2021/07/29 07:34:38;;;;;;;4.53;2.90;;;;;;;20.23;72.00;96279.56;5112025;28;20047;-75
2021/07/29 07:37:04;;;;;;;5.30;3.47;;;;;;;20.35;70.91;96282.03;5111208;28;20514;-75
2021/07/29 07:39:35;;;;;;;6.50;2.97;;;;;;;20.42;71.10;96282.09;5111551;28;20509;-75
2021/07/29 07:42:01;;;;;;;7.13;3.15;;;;;;;20.47;71.47;96281.78;5111192;28;20543;-74
2021/07/29 07:44:28;;;;;;;4.72;3.30;;;;;;;20.55;71.30;96279.84;5111482;28;20406;-75
2021/07/29 07:46:55;;;;;;;6.13;3.00;;;;;;;20.61;71.40;96271.97;5111551;28;20653;-74
2021/07/29 07:49:21;;;;;;;7.03;3.40;;;;;;;20.65;73.30;96272.78;5110985;28;20054;-75
2021/07/29 07:51:47;;;;;;;7.50;3.50;;;;;;;20.75;72.50;96274.84;5111427;28;20039;-76
2021/07/29 07:54:14;;;;;;;6.13;3.45;;;;;;;20.86;70.92;96267.38;5111250;28;20052;-75
2021/07/29 07:56:45;;;;;;;4.50;3.13;;;;;;;21.00;68.35;96273.00;5111427;28;20039;-75
2021/07/29 07:59:11;;;;;;;8.65;3.42;;;;;;;21.12;64.77;96277.41;5110249;28;20399;-75
2021/07/29 08:01:39;;;;;;;5.22;3.20;;;;;;;21.23;67.69;96269.16;5111766;28;20071;-75
2021/07/29 08:04:11;;;;;;;3.92;3.00;;;;;;;21.41;68.47;96270.06;5110804;28;20048;-75
2021/07/29 08:06:37;;;;;;;4.95;3.00;;;;;;;21.98;64.24;96261.88;5111171;28;20047;-74
2021/07/29 08:09:04;;;;;;;4.72;3.15;;;;;;;23.35;61.88;96271.63;5110849;28;20069;-75
2021/07/29 08:11:31;;;;;;;4.22;2.80;;;;;;;24.31;54.60;96265.50;5111264;28;20051;-76
2021/07/29 08:13:59;;;;;;;4.57;2.90;;;;;;;24.97;52.37;96267.31;5111239;28;20044;-75
2021/07/29 08:16:25;;;;;;;6.25;3.35;;;;;;;25.96;53.42;96267.31;5110911;28;20046;-75
2021/07/29 08:18:53;;;;;;;5.32;2.83;;;;;;;26.40;49.13;96259.84;5111071;28;20494;-75
2021/07/29 08:21:20;;;;;;;4.47;2.83;;;;;;;26.40;49.17;96262.63;5110425;28;20406;-75
2021/07/29 08:23:47;;;;;;;4.43;2.92;;;;;;;27.02;48.64;96250.78;5111142;28;20040;-75
2021/07/29 08:26:13;;;;;;;8.05;3.00;;;;;;;27.61;48.39;96252.00;5110602;28;20375;-75
2021/07/29 08:28:41;;;;;;;6.03;2.50;;;;;;;28.18;47.62;96244.38;5110294;28;20044;-75
2021/07/29 08:31:09;;;;;;;3.75;2.53;;;;;;;28.99;46.74;96246.38;5110658;28;20498;-75
2021/07/29 08:33:36;;;;;;;8.50;3.50;;;;;;;29.40;41.35;96244.84;5114170;28;20076;-75
2021/07/29 08:36:02;;;;;;;9.02;3.65;;;;;;;28.82;42.22;96240.78;5114551;28;20039;-75
2021/07/29 08:38:29;;;;;;;4.70;3.83;;;;;;;28.24;42.48;96237.81;5113715;28;20062;-75
2021/07/29 08:40:55;;;;;;;6.93;2.78;;;;;;;28.54;45.96;96247.09;5113715;28;20040;-77
2021/07/29 08:43:22;;;;;;;6.07;3.08;;;;;;;27.76;44.79;96242.13;5114574;28;20048;-77
2021/07/29 08:45:52;;;;;;;6.00;3.33;;;;;;;26.82;47.68;96238.00;5114272;28;20592;-75
2021/07/29 08:48:25;;;;;;;5.15;3.38;;;;;;;25.97;50.95;96238.19;5114293;28;20055;-75
2021/07/29 08:50:52;;;;;;;7.40;3.30;;;;;;;25.45;53.79;96238.50;5114635;28;20055;-74
2021/07/29 08:53:18;;;;;;;9.68;3.60;;;;;;;25.00;53.57;96233.03;5112894;28;20047;-75
2021/07/29 08:55:48;;;;;;;5.65;3.50;;;;;;;24.55;56.00;96230.34;5114737;28;20039;-75
2021/07/29 08:58:14;;;;;;;6.75;3.47;;;;;;;24.97;55.93;96233.88;5113542;28;20040;-74
2021/07/29 09:00:57;;;;;;;4.95;3.13;;;;;;;26.21;52.57;96228.66;5113772;28;20047;-75
2021/07/29 09:03:27;;;;;;;5.07;3.55;;;;;;;27.26;49.87;96220.78;5113985;28;20051;-75
2021/07/29 09:06:05;;;;;;;4.40;2.83;;;;;;;28.14;41.60;96227.66;5113637;28;20425;-77
2021/07/29 09:08:49;;;;;;;4.13;3.03;;;;;;;28.00;40.16;96228.78;5113979;28;20043;-75
2021/07/29 09:11:30;;;;;;;4.85;3.10;;;;;;;28.36;41.74;96227.97;5113830;28;20075;-75
2021/07/29 09:14:05;;;;;;;4.40;3.00;;;;;;;27.76;41.10;96230.91;5114242;28;20043;-76
2021/07/29 09:16:33;;;;;;;5.82;3.08;;;;;;;27.27;42.45;96230.75;5113531;28;20051;-75
2021/07/29 09:19:02;;;;;;;4.65;2.83;;;;;;;27.29;40.79;96227.50;5113298;28;20063;-75
2021/07/29 09:21:28;;;;;;;3.97;2.83;;;;;;;26.84;41.58;96230.00;5112713;28;20455;-75
2021/07/29 09:24:05;;;;;;;7.20;2.92;;;;;;;27.71;45.97;96223.03;5114351;28;20031;-75
2021/07/29 09:26:54;;;;;;;4.35;2.78;;;;;;;28.48;39.12;96230.03;5113474;28;20044;-75
2021/07/29 09:29:22;;;;;;;4.78;2.63;;;;;;;28.45;40.38;96224.53;5113028;28;20054;-74
2021/07/29 09:31:49;;;;;;;5.80;2.70;;;;;;;28.50;37.73;96226.78;5114256;28;20047;-74
2021/07/29 09:34:17;;;;;;;4.05;2.60;;;;;;;29.21;36.89;96218.53;5113511;28;20055;-74
2021/07/29 09:36:43;;;;;;;4.32;2.83;;;;;;;29.20;38.62;96223.34;5113713;28;20043;-75
2021/07/29 09:39:20;;;;;;;3.40;2.75;;;;;;;29.30;35.59;96227.09;5113392;28;20040;-75
2021/07/29 09:41:49;;;;;;;4.47;2.70;;;;;;;28.97;37.42;96224.38;5113781;28;20043;-76
2021/07/29 09:44:16;;;;;;;3.40;2.63;;;;;;;28.88;36.04;96221.41;5111647;28;20524;-75
2021/07/29 09:46:44;;;;;;;4.03;2.55;;;;;;;28.54;35.85;96228.28;5113419;28;20051;-76
2021/07/29 09:49:11;;;;;;;4.60;2.58;;;;;;;28.08;40.30;96221.00;5113353;28;20048;-75
2021/07/29 09:51:40;;;;;;;3.50;2.65;;;;;;;27.47;38.20;96221.56;5113446;28;20062;-75
2021/07/29 09:54:08;;;;;;;5.05;2.80;;;;;;;26.76;41.91;96227.31;5113330;28;20044;-75
2021/07/29 09:56:34;;;;;;;4.03;2.95;;;;;;;26.24;44.04;96230.56;5113586;28;20047;-77
2021/07/29 09:59:03;;;;;;;3.90;2.95;;;;;;;25.94;44.16;96233.44;5112970;28;20054;-76
2021/07/29 10:01:30;;;;;;;4.53;2.90;;;;;;;25.61;44.63;96221.94;5113204;28;20042;-77
2021/07/29 10:03:59;;;;;;;4.10;2.95;;;;;;;25.27;47.23;96224.81;5113422;28;20046;-75
2021/07/29 10:06:27;;;;;;;6.03;3.10;;;;;;;24.94;46.25;96217.97;5112832;28;20035;-74
2021/07/29 10:08:59;;;;;;;4.57;2.90;;;;;;;24.64;46.97;96219.50;5113197;28;20051;-76
2021/07/29 10:11:29;;;;;;;5.88;3.50;;;;;;;24.64;47.36;96219.50;5113102;28;20059;-75
2021/07/29 10:13:55;;;;;;;4.30;3.20;;;;;;;24.58;48.80;96220.34;5113100;28;20047;-76
2021/07/29 10:16:46;;;;;;;4.63;3.38;;;;;;;24.55;47.01;96213.63;5112999;28;20410;-76
2021/07/29 10:19:13;;;;;;;6.88;3.40;;;;;;;24.67;50.34;96221.44;5112755;28;20448;-76
2021/07/29 10:21:41;;;;;;;5.07;3.53;;;;;;;24.97;50.50;96217.94;5112351;28;20039;-75
2021/07/29 10:24:10;;;;;;;6.45;3.30;;;;;;;25.14;43.21;96216.19;5111359;28;20498;-77
2021/07/29 10:27:10;;;;;;;4.55;3.28;;;;;;;25.34;46.42;96218.34;5112077;28;20490;-76
2021/07/29 10:29:36;;;;;;;3.90;3.15;;;;;;;25.37;45.15;96211.91;5111943;28;20175;-76
2021/07/29 10:32:08;;;;;;;4.32;3.63;;;;;;;25.55;48.26;96215.25;5112253;28;20501;-75
2021/07/29 10:34:36;;;;;;;5.83;3.10;;;;;;;25.63;46.49;96202.81;5113270;28;20068;-75
2021/07/29 10:37:04;;;;;;;6.03;3.20;;;;;;;25.78;43.68;96203.41;5112005;28;20309;-75
2021/07/29 10:39:33;;;;;;;7.25;3.50;;;;;;;26.00;50.78;96210.25;5112829;28;20043;-75
2021/07/29 10:42:01;;;;;;;6.15;3.75;;;;;;;26.00;44.81;96203.88;5112755;28;20039;-76
2021/07/29 10:44:47;;;;;;;6.40;3.05;;;;;;;26.08;43.99;96208.13;5112443;28;20036;-76
2021/07/29 10:47:18;;;;;;;5.47;3.40;;;;;;;26.11;46.05;96207.28;5112163;28;20044;-76
2021/07/29 10:50:14;;;;;;;4.85;3.25;;;;;;;26.12;41.09;96205.28;5112766;28;20074;-76
2021/07/29 10:52:48;;;;;;;5.03;3.30;;;;;;;25.79;45.42;96198.59;5112031;28;20043;-76
2021/07/29 10:55:16;;;;;;;4.15;3.10;;;;;;;25.79;44.22;96193.84;5111644;28;20067;-76
2021/07/29 10:57:58;;;;;;;3.75;3.00;;;;;;;25.98;43.03;96200.72;5112247;28;20051;-75
2021/07/29 11:00:25;;;;;;;7.07;3.45;;;;;;;26.00;45.87;96198.31;5091393;28;20040;-76
2021/07/29 11:02:53;;;;;;;6.13;3.42;;;;;;;26.04;45.30;96185.06;5091808;28;20055;-76
2021/07/29 11:05:26;;;;;;;5.18;3.50;;;;;;;26.00;45.33;96192.72;5093565;28;20130;-76
2021/07/29 11:07:53;;;;;;;6.53;3.80;;;;;;;25.75;44.90;96182.72;5112255;28;20047;-76
2021/07/29 11:10:25;;;;;;;5.05;3.53;;;;;;;25.48;46.31;96191.06;5111595;28;20409;-78
2021/07/29 11:12:51;;;;;;;6.20;3.60;;;;;;;25.38;46.87;96188.44;5111922;28;20050;-76
2021/07/29 11:15:18;;;;;;;5.50;3.70;;;;;;;25.31;49.63;96191.28;5111445;28;20051;-78
2021/07/29 11:17:45;;;;;;;7.18;3.08;;;;;;;25.11;46.99;96182.78;5112236;28;20048;-76
2021/07/29 11:20:12;;;;;;;4.35;3.40;;;;;;;25.10;47.91;96176.44;5111480;28;20050;-76
2021/07/29 11:22:43;;;;;;;5.88;3.17;;;;;;;25.15;48.42;96170.38;5111606;28;20502;-76
2021/07/29 11:25:10;;;;;;;5.38;3.55;;;;;;;25.22;48.24;96166.75;5111312;28;20567;-76
2021/07/29 11:27:38;;;;;;;4.95;3.83;;;;;;;25.18;46.12;96172.34;5110963;28;20055;-76
2021/07/29 11:30:05;;;;;;;5.00;3.58;;;;;;;25.22;45.96;96172.31;5110116;28;20043;-77
2021/07/29 11:32:37;;;;;;;4.35;3.20;;;;;;;25.24;46.94;96169.88;5111228;28;20040;-76
2021/07/29 11:35:04;;;;;;;5.60;3.30;;;;;;;25.12;47.48;96162.88;5111133;28;20498;-76
2021/07/29 11:37:39;;;;;;;7.60;3.83;;;;;;;25.07;52.24;96159.78;5099211;28;20050;-76
2021/07/29 11:40:07;;;;;;;4.35;3.17;;;;;;;25.29;51.71;96165.84;5111279;28;20040;-76